createdAt,value
2019-05-22T00:01:18.506Z,24.80
2019-05-22T00:03:48.344Z,25.20
2019-05-22T00:06:18.193Z,23.67
2019-05-22T00:08:47.958Z,26.47
2019-05-22T00:11:17.247Z,27.43
2019-05-22T00:13:47.775Z,24.00
2019-05-22T00:16:17.218Z,23.00
2019-05-22T00:18:47.191Z,26.67
2019-05-22T00:21:16.387Z,27.10
2019-05-22T00:23:45.263Z,28.23
2019-05-22T00:26:14.734Z,28.20
2019-05-22T00:28:43.971Z,29.03
2019-05-22T00:31:13.822Z,29.63
2019-05-22T00:33:42.608Z,28.83
2019-05-22T00:36:10.983Z,32.40
2019-05-22T00:38:39.656Z,27.20
2019-05-22T00:41:09.978Z,30.53
2019-05-22T00:43:39.461Z,31.50
2019-05-22T00:46:09.295Z,32.37
2019-05-22T00:48:40.219Z,29.70
2019-05-22T00:51:10.340Z,28.90
2019-05-22T00:53:56.527Z,32.23
2019-05-22T00:56:27.678Z,31.43
2019-05-22T00:59:07.836Z,30.00
2019-05-22T01:01:48.401Z,27.90
2019-05-22T01:04:18.693Z,28.97
2019-05-22T01:06:48.786Z,26.37
2019-05-22T01:09:18.642Z,29.10
2019-05-22T01:11:48.152Z,28.63
2019-05-22T01:14:18.104Z,26.13
2019-05-22T01:16:46.364Z,26.97
2019-05-22T01:19:15.969Z,24.03
2019-05-22T01:21:45.168Z,24.93
2019-05-22T01:24:14.916Z,23.73
2019-05-22T01:26:43.689Z,19.50
2019-05-22T01:29:14.023Z,20.17
2019-05-22T01:31:44.250Z,18.20
2019-05-22T01:34:12.770Z,17.87
2019-05-22T01:36:45.345Z,15.97
2019-05-22T01:39:23.555Z,17.53
2019-05-22T01:41:53.401Z,15.40
2019-05-22T01:44:22.994Z,14.73
2019-05-22T01:46:52.460Z,14.83
2019-05-22T01:49:20.675Z,13.97
2019-05-22T01:51:50.339Z,13.10
2019-05-22T01:54:19.079Z,12.43
2019-05-22T01:56:47.461Z,14.63
2019-05-22T01:59:15.733Z,13.60
2019-05-22T02:01:45.039Z,15.53
2019-05-22T02:04:14.885Z,13.27
2019-05-22T02:06:43.394Z,12.50
2019-05-22T02:09:24.796Z,16.60
2019-05-22T02:12:00.953Z,16.73
2019-05-22T02:14:30.371Z,20.13
2019-05-22T02:16:58.569Z,18.00
2019-05-22T02:19:28.232Z,19.90
2019-05-22T02:21:56.438Z,21.00
2019-05-22T02:27:05.948Z,20.63
2019-05-22T02:29:35.986Z,19.50
2019-05-22T02:32:06.512Z,21.50
2019-05-22T02:34:35.530Z,23.23
2019-05-22T02:37:05.626Z,28.30
2019-05-22T02:39:35.484Z,22.90
2019-05-22T02:42:08.321Z,23.33
2019-05-22T02:44:36.988Z,27.57
2019-05-22T02:47:18.042Z,25.77
2019-05-22T02:49:36.156Z,28.10
2019-05-22T02:52:05.982Z,29.30
2019-05-22T02:54:34.230Z,29.27
2019-05-22T02:57:03.445Z,27.23
2019-05-22T02:59:31.653Z,27.40
2019-05-22T03:02:01.200Z,25.90
2019-05-22T03:04:48.041Z,26.93
2019-05-22T03:07:16.443Z,25.23
2019-05-22T03:09:46.727Z,27.83
2019-05-22T03:12:16.941Z,28.73
2019-05-22T03:14:45.711Z,27.13
2019-05-22T03:17:24.940Z,30.00
2019-05-22T03:19:53.425Z,29.10
2019-05-22T03:22:31.741Z,27.73
2019-05-22T03:25:01.767Z,29.33
2019-05-22T03:27:40.822Z,30.97
2019-05-22T03:30:13.670Z,28.40
2019-05-22T03:32:43.987Z,27.10
2019-05-22T03:35:13.181Z,30.43
2019-05-22T03:37:42.912Z,28.63
2019-05-22T03:40:11.291Z,27.27
2019-05-22T03:42:39.523Z,29.27
2019-05-22T03:45:07.721Z,29.70
2019-05-22T03:47:36.550Z,28.47
2019-05-22T03:50:06.345Z,27.27
2019-05-22T03:52:36.157Z,25.07
2019-05-22T03:55:06.581Z,28.73
2019-05-22T03:57:36.222Z,25.90
2019-05-22T04:00:12.323Z,24.90
2019-05-22T04:02:40.760Z,27.00
2019-05-22T04:05:09.890Z,26.57
2019-05-22T04:07:40.128Z,24.73
2019-05-22T04:10:09.524Z,26.07
2019-05-22T04:12:38.835Z,22.63
2019-05-22T04:15:08.958Z,23.20
2019-05-22T04:17:38.075Z,25.83
2019-05-22T04:20:06.280Z,26.17
2019-05-22T04:22:34.932Z,28.30
2019-05-22T04:25:04.726Z,22.50
2019-05-22T04:27:33.298Z,24.83
2019-05-22T04:30:01.595Z,23.43
2019-05-22T04:32:31.694Z,23.80
2019-05-22T04:35:00.579Z,24.30
2019-05-22T04:37:30.836Z,26.97
2019-05-22T04:40:14.191Z,27.43
2019-05-22T04:42:42.400Z,24.30
2019-05-22T04:45:15.424Z,24.53
2019-05-22T04:47:55.150Z,29.27
2019-05-22T04:50:23.340Z,24.93
2019-05-22T04:52:52.022Z,27.40
2019-05-22T04:55:21.196Z,23.20
2019-05-22T04:57:50.089Z,23.97
2019-05-22T05:00:18.361Z,23.83
2019-05-22T05:02:46.556Z,25.97
2019-05-22T05:05:15.219Z,24.30
2019-05-22T05:07:43.792Z,24.30
2019-05-22T05:10:12.059Z,26.63
2019-05-22T05:12:41.739Z,22.90
2019-05-22T05:15:11.145Z,25.77
2019-05-22T05:17:39.356Z,26.57
2019-05-22T05:20:21.591Z,25.53
2019-05-22T05:22:44.909Z,25.63
2019-05-22T05:25:14.916Z,25.20
2019-05-22T05:27:43.693Z,25.43
2019-05-22T05:30:15.964Z,21.13
2019-05-22T05:32:44.491Z,23.70
2019-05-22T05:35:14.114Z,22.07
2019-05-22T05:37:42.322Z,22.20
2019-05-22T05:40:14.348Z,21.33
2019-05-22T05:42:42.639Z,20.17
2019-05-22T05:45:13.588Z,18.20
2019-05-22T05:47:41.216Z,18.10
2019-05-22T05:50:11.713Z,18.87
2019-05-22T05:52:41.452Z,20.53
2019-05-22T05:55:09.650Z,23.40
2019-05-22T05:57:44.080Z,16.60
2019-05-22T06:00:33.323Z,15.17
2019-05-22T06:03:13.995Z,15.10
2019-05-22T06:05:42.889Z,14.07
2019-05-22T06:08:11.150Z,17.17
2019-05-22T06:10:42.913Z,17.43
2019-05-22T06:13:11.383Z,15.83
2019-05-22T06:15:47.813Z,17.53
2019-05-22T06:18:35.452Z,16.07
2019-05-22T06:21:04.946Z,17.87
2019-05-22T06:23:39.436Z,12.57
2019-05-22T06:26:07.678Z,14.80
2019-05-22T06:28:38.243Z,15.27
2019-05-22T06:31:08.813Z,13.33
2019-05-22T06:33:37.408Z,14.73
2019-05-22T06:36:07.912Z,20.13
2019-05-22T06:38:46.075Z,15.43
2019-05-22T06:41:14.286Z,16.47
2019-05-22T06:43:45.919Z,13.10
2019-05-22T06:46:14.550Z,16.07
2019-05-22T06:48:43.392Z,17.17
2019-05-22T06:51:19.374Z,17.03
2019-05-22T06:53:41.895Z,20.23
2019-05-22T06:56:10.107Z,18.67
2019-05-22T06:58:38.621Z,16.50
2019-05-22T07:01:07.399Z,16.40
2019-05-22T07:03:35.591Z,16.23
2019-05-22T07:06:03.815Z,17.07
2019-05-22T07:08:32.015Z,17.07
2019-05-22T07:11:00.671Z,15.90
2019-05-22T07:13:30.072Z,17.63
2019-05-22T07:15:58.911Z,15.33
2019-05-22T07:18:28.774Z,15.17
2019-05-22T07:20:57.357Z,14.97
2019-05-22T07:23:27.214Z,13.90
2019-05-22T07:25:55.655Z,13.20
2019-05-22T07:28:25.514Z,13.10
2019-05-22T07:30:53.989Z,12.03
2019-05-22T07:33:22.859Z,12.83
2019-05-22T07:36:08.474Z,12.77
2019-05-22T07:38:21.422Z,12.90
2019-05-22T07:40:51.091Z,9.53
2019-05-22T07:43:20.205Z,11.77
2019-05-22T07:45:48.875Z,10.63
2019-05-22T07:48:17.159Z,8.00
2019-05-22T07:50:48.892Z,9.67
2019-05-22T07:53:17.122Z,8.03
2019-05-22T07:55:45.438Z,8.90
2019-05-22T07:58:14.955Z,8.93
2019-05-22T08:00:46.948Z,9.33
2019-05-22T08:03:15.319Z,8.67
2019-05-22T08:05:45.149Z,9.10
2019-05-22T08:08:14.505Z,10.43
2019-05-22T08:10:43.124Z,7.77
2019-05-22T08:13:11.589Z,6.87
2019-05-22T08:15:40.172Z,7.67
2019-05-22T08:18:08.659Z,7.87
2019-05-22T08:20:37.053Z,6.30
2019-05-22T08:23:05.675Z,7.93
2019-05-22T08:25:33.881Z,7.27
2019-05-22T08:28:02.113Z,8.53
2019-05-22T08:30:30.424Z,7.63
2019-05-22T08:32:59.131Z,9.30
2019-05-22T08:35:27.835Z,8.53
2019-05-22T08:37:56.203Z,7.47
2019-05-22T08:40:24.869Z,7.63
2019-05-22T08:42:53.354Z,9.03
2019-05-22T08:45:22.417Z,10.37
2019-05-22T08:47:50.621Z,15.80
2019-05-22T08:50:20.499Z,9.80
2019-05-22T08:52:48.751Z,11.87
2019-05-22T08:55:17.398Z,11.37
2019-05-22T08:57:46.411Z,12.17
2019-05-22T09:00:22.216Z,9.80
2019-05-22T09:02:50.789Z,11.30
2019-05-22T09:05:21.496Z,13.33
2019-05-22T09:07:49.777Z,10.53
2019-05-22T09:10:18.675Z,13.20
2019-05-22T09:12:47.057Z,13.40
2019-05-22T09:15:15.308Z,11.97
2019-05-22T09:17:43.776Z,16.63
2019-05-22T09:20:12.367Z,13.13
2019-05-22T09:22:41.626Z,14.30
2019-05-22T09:25:13.643Z,16.20
2019-05-22T09:27:42.590Z,17.33
2019-05-22T09:30:11.228Z,16.50
2019-05-22T09:32:39.460Z,17.07
2019-05-22T09:35:07.941Z,19.10
2019-05-22T09:37:36.154Z,20.07
2019-05-22T09:40:05.702Z,16.90
2019-05-22T09:42:35.595Z,19.33
2019-05-22T09:45:06.603Z,16.70
2019-05-22T09:47:35.383Z,17.83
2019-05-22T09:50:07.971Z,19.10
2019-05-22T09:52:36.258Z,18.43
2019-05-22T09:55:05.968Z,20.73
2019-05-22T09:57:35.540Z,19.87
2019-05-22T10:00:08.383Z,20.47
2019-05-22T10:02:36.900Z,19.27
2019-05-22T10:05:05.831Z,19.03
2019-05-22T10:07:35.014Z,19.03
2019-05-22T10:10:04.357Z,20.90
2019-05-22T10:12:33.046Z,24.17
2019-05-22T10:15:01.626Z,22.33
2019-05-22T10:17:29.847Z,22.70
2019-05-22T10:19:58.314Z,22.70
2019-05-22T10:22:29.551Z,21.80
2019-05-22T10:25:14.821Z,25.67
2019-05-22T10:27:29.602Z,21.47
2019-05-22T10:29:57.827Z,25.17
2019-05-22T10:32:26.021Z,25.37
2019-05-22T10:34:57.630Z,27.10
2019-05-22T10:37:24.746Z,30.10
2019-05-22T10:39:53.315Z,29.03
2019-05-22T10:42:22.005Z,29.80
2019-05-22T10:44:50.474Z,25.77
2019-05-22T10:47:19.080Z,25.80
2019-05-22T10:49:47.500Z,26.30
2019-05-22T10:52:16.370Z,28.10
2019-05-22T10:54:44.574Z,26.73
2019-05-22T10:57:13.036Z,28.43
2019-05-22T10:59:41.587Z,28.33
2019-05-22T11:02:09.788Z,31.20
2019-05-22T11:04:38.865Z,35.70
2019-05-22T11:07:07.753Z,31.37
2019-05-22T11:09:37.107Z,29.87
2019-05-22T11:12:06.486Z,29.03
2019-05-22T11:14:35.070Z,29.93
2019-05-22T11:17:03.279Z,31.53
2019-05-22T11:19:32.000Z,27.97
2019-05-22T11:22:00.271Z,32.23
2019-05-22T11:24:28.756Z,31.50
2019-05-22T11:26:57.126Z,29.63
2019-05-22T11:29:25.612Z,30.10
2019-05-22T11:31:54.449Z,28.90
2019-05-22T11:34:22.983Z,32.70
2019-05-22T11:36:51.184Z,31.03
2019-05-22T11:39:36.389Z,27.20
2019-05-22T11:41:51.908Z,30.53
2019-05-22T11:44:20.383Z,26.63
2019-05-22T11:46:49.485Z,29.37
2019-05-22T11:49:17.695Z,26.33
2019-05-22T11:51:45.916Z,27.70
2019-05-22T11:54:14.114Z,30.43
2019-05-22T11:56:42.311Z,28.53
2019-05-22T11:59:11.206Z,27.93
2019-05-22T12:01:39.406Z,29.13
2019-05-22T12:04:09.380Z,27.70
2019-05-22T12:06:38.068Z,26.03
2019-05-22T12:09:08.383Z,26.27
2019-05-22T12:11:36.666Z,22.47
2019-05-22T12:14:05.977Z,25.87
2019-05-22T12:16:34.731Z,26.17
2019-05-22T12:19:03.204Z,23.73
2019-05-22T12:21:31.684Z,29.67
2019-05-22T12:24:00.104Z,22.77
2019-05-22T12:26:28.449Z,22.87
2019-05-22T12:28:56.668Z,20.93
2019-05-22T12:31:25.235Z,23.27
2019-05-22T12:33:53.444Z,24.27
2019-05-22T12:36:22.179Z,22.33
2019-05-22T12:38:50.462Z,22.47
2019-05-22T12:41:19.169Z,19.50
2019-05-22T12:43:47.622Z,25.33
2019-05-22T12:46:16.407Z,20.60
2019-05-22T12:48:45.158Z,18.63
2019-05-22T12:51:14.192Z,16.23
2019-05-22T12:53:42.424Z,20.37
2019-05-22T12:56:10.631Z,17.50
2019-05-22T12:58:39.000Z,18.13
2019-05-22T13:01:10.356Z,15.87
2019-05-22T13:03:38.695Z,18.73
2019-05-22T13:06:07.152Z,16.70
2019-05-22T13:08:35.350Z,14.67
2019-05-22T13:11:05.537Z,16.33
2019-05-22T13:13:33.679Z,17.43
2019-05-22T13:16:02.137Z,14.90
2019-05-22T13:18:30.990Z,16.93
2019-05-22T13:21:00.272Z,15.43
2019-05-22T13:23:31.740Z,14.60
2019-05-22T13:26:00.172Z,14.83
2019-05-22T13:28:29.227Z,14.67
2019-05-22T13:30:58.197Z,14.03
2019-05-22T13:33:28.294Z,11.80
2019-05-22T13:35:56.498Z,12.93
2019-05-22T13:38:24.964Z,12.60
2019-05-22T13:40:53.948Z,17.00
2019-05-22T13:43:22.169Z,13.77
2019-05-22T13:45:50.850Z,13.33
2019-05-22T13:48:19.387Z,13.10
2019-05-22T13:50:48.183Z,13.20
2019-05-22T13:53:16.376Z,13.23
2019-05-22T13:55:45.187Z,11.30
2019-05-22T13:58:13.719Z,16.23
2019-05-22T14:00:42.149Z,13.20
2019-05-22T14:03:10.572Z,12.50
2019-05-22T14:05:40.413Z,12.97
2019-05-22T14:08:08.987Z,15.93
2019-05-22T14:10:37.817Z,12.93
2019-05-22T14:13:06.023Z,12.17
2019-05-22T14:15:49.998Z,17.20
2019-05-22T14:18:04.335Z,11.30
2019-05-22T14:20:32.543Z,12.73
2019-05-22T14:23:00.730Z,17.17
2019-05-22T14:25:29.199Z,14.80
2019-05-22T14:27:57.404Z,16.97
2019-05-22T14:30:27.659Z,15.30
2019-05-22T14:32:56.555Z,13.00
2019-05-22T14:35:25.590Z,12.60
2019-05-22T14:37:53.805Z,11.70
2019-05-22T14:40:22.076Z,10.70
2019-05-22T14:42:50.570Z,11.07
2019-05-22T14:45:18.966Z,10.87
2019-05-22T14:47:47.153Z,12.43
2019-05-22T14:50:15.351Z,11.67
2019-05-22T14:52:43.568Z,11.87
2019-05-22T14:55:12.031Z,14.13
2019-05-22T14:57:40.254Z,9.80
2019-05-22T15:00:13.036Z,11.50
2019-05-22T15:02:41.309Z,10.67
2019-05-22T15:05:09.520Z,11.73
2019-05-22T15:07:37.752Z,9.70
2019-05-22T15:10:10.686Z,12.07
2019-05-22T15:12:38.899Z,10.37
2019-05-22T15:15:10.190Z,9.63
2019-05-22T15:17:38.556Z,10.53
2019-05-22T15:20:08.990Z,9.17
2019-05-22T15:22:37.189Z,9.20
2019-05-22T15:25:06.837Z,9.07
2019-05-22T15:27:35.501Z,9.63
2019-05-22T15:30:05.638Z,10.77
2019-05-22T15:32:33.916Z,10.20
2019-05-22T15:35:02.204Z,9.40
2019-05-22T15:37:31.197Z,10.57
2019-05-22T15:39:59.961Z,10.00
2019-05-22T15:42:34.501Z,9.50
2019-05-22T15:45:05.216Z,10.20
2019-05-22T15:47:52.459Z,9.63
2019-05-22T15:50:06.188Z,8.93
2019-05-22T15:52:35.133Z,10.77
2019-05-22T15:55:03.790Z,9.17
2019-05-22T15:57:33.581Z,9.03
2019-05-22T16:00:02.180Z,9.10
2019-05-22T16:02:30.394Z,9.03
2019-05-22T16:04:58.964Z,9.87
2019-05-22T16:07:27.508Z,10.07
2019-05-22T16:09:56.377Z,8.40
2019-05-22T16:12:24.991Z,7.57
2019-05-22T16:14:53.620Z,9.90
2019-05-22T16:17:22.192Z,7.03
2019-05-22T16:19:50.874Z,6.93
2019-05-22T16:22:19.619Z,7.43
2019-05-22T16:24:47.828Z,8.60
2019-05-22T16:27:16.775Z,7.10
2019-05-22T16:29:45.772Z,9.20
2019-05-22T16:32:14.344Z,7.97
2019-05-22T16:34:42.636Z,9.80
2019-05-22T16:37:11.118Z,8.13
2019-05-22T16:39:39.686Z,8.07
2019-05-22T16:42:08.339Z,6.50
2019-05-22T16:44:36.863Z,7.70
2019-05-22T16:47:07.108Z,9.30
2019-05-22T16:49:35.484Z,21.57
2019-05-22T16:52:04.732Z,10.83
2019-05-22T16:54:33.375Z,8.50
2019-05-22T16:57:01.852Z,7.03
2019-05-22T16:59:30.829Z,8.83
2019-05-22T17:02:00.748Z,8.57
2019-05-22T17:04:29.134Z,8.40
2019-05-22T17:06:57.325Z,7.13
2019-05-22T17:09:26.212Z,7.77
2019-05-22T17:11:54.949Z,9.20
2019-05-22T17:14:23.443Z,7.17
2019-05-22T17:16:52.844Z,12.63
2019-05-22T17:19:27.055Z,8.53
2019-05-22T17:21:51.644Z,5.83
2019-05-22T17:24:20.068Z,7.33
2019-05-22T17:26:49.766Z,8.77
2019-05-22T17:29:17.996Z,7.53
2019-05-22T17:31:46.198Z,7.37
2019-05-22T17:34:32.454Z,6.80
2019-05-22T17:37:02.036Z,7.77
2019-05-22T17:39:31.421Z,8.67
2019-05-22T17:41:59.858Z,7.53
2019-05-22T17:44:28.243Z,7.50
2019-05-22T17:46:57.003Z,9.00
2019-05-22T17:49:25.750Z,8.47
2019-05-22T17:51:53.937Z,8.07
2019-05-22T17:54:22.169Z,7.47
2019-05-22T17:56:51.494Z,7.97
2019-05-22T17:59:19.696Z,7.80
2019-05-22T18:01:49.662Z,6.73
2019-05-22T18:04:17.874Z,10.43
2019-05-22T18:06:46.193Z,11.40
2019-05-22T18:09:14.851Z,13.03
2019-05-22T18:11:43.041Z,6.83
2019-05-22T18:14:11.420Z,8.33
2019-05-22T18:16:39.621Z,8.77
2019-05-22T18:19:08.510Z,9.00
2019-05-22T18:21:36.824Z,8.40
2019-05-22T18:24:05.073Z,12.23
2019-05-22T18:26:34.275Z,10.57
2019-05-22T18:29:02.576Z,16.27
2019-05-22T18:31:30.845Z,8.63
2019-05-22T18:33:59.044Z,8.03
2019-05-22T18:36:27.260Z,11.53
2019-05-22T18:38:55.465Z,13.37
2019-05-22T18:41:23.676Z,31.70
2019-05-22T18:43:52.144Z,27.17
2019-05-22T18:46:20.350Z,19.33
2019-05-22T18:48:48.553Z,12.80
2019-05-22T18:51:16.753Z,8.90
2019-05-22T18:53:45.248Z,12.57
2019-05-22T18:56:14.219Z,14.70
2019-05-22T18:58:42.990Z,9.03
2019-05-22T19:01:11.264Z,10.07
2019-05-22T19:03:39.458Z,12.93
2019-05-22T19:06:07.655Z,8.73
2019-05-22T19:08:35.912Z,11.00
2019-05-22T19:11:04.188Z,10.13
2019-05-22T19:13:32.451Z,8.60
2019-05-22T19:16:00.752Z,7.57
2019-05-22T19:18:29.042Z,10.57
2019-05-22T19:20:57.258Z,8.40
2019-05-22T19:23:25.642Z,8.67
2019-05-22T19:25:54.176Z,7.63
2019-05-22T19:28:22.569Z,11.43
2019-05-22T19:30:50.797Z,8.37
2019-05-22T19:33:19.051Z,7.67
2019-05-22T19:35:47.305Z,7.03
2019-05-22T19:38:15.524Z,6.67
2019-05-22T19:40:43.716Z,7.10
2019-05-22T19:43:12.477Z,7.70
2019-05-22T19:45:41.186Z,8.67
2019-05-22T19:48:10.005Z,9.57
2019-05-22T19:50:38.910Z,8.23
2019-05-22T19:53:18.959Z,9.60
2019-05-22T19:55:39.690Z,9.60
2019-05-22T19:58:09.157Z,10.30
2019-05-22T20:00:37.841Z,11.47
2019-05-22T20:03:06.053Z,10.13
2019-05-22T20:05:35.132Z,10.30
2019-05-22T20:08:04.197Z,13.40
2019-05-22T20:10:32.554Z,10.67
2019-05-22T20:13:00.865Z,14.13
2019-05-22T20:15:29.740Z,11.43
2019-05-22T20:17:58.059Z,12.30
2019-05-22T20:20:27.144Z,11.43
2019-05-22T20:22:56.675Z,9.57
2019-05-22T20:25:25.650Z,9.33
2019-05-22T20:27:55.759Z,9.60
2019-05-22T20:30:25.082Z,11.17
2019-05-22T20:32:53.609Z,11.20
2019-05-22T20:35:22.322Z,13.23
2019-05-22T20:37:51.465Z,9.33
2019-05-22T20:40:20.254Z,11.30
2019-05-22T20:42:48.639Z,11.67
2019-05-22T20:45:17.613Z,12.83
2019-05-22T20:47:46.066Z,10.27
2019-05-22T20:50:15.607Z,13.30
2019-05-22T20:52:45.662Z,13.27
2019-05-22T20:55:14.695Z,11.07
2019-05-22T20:57:43.647Z,11.67
2019-05-22T21:00:14.851Z,10.90
2019-05-22T21:02:43.730Z,12.50
2019-05-22T21:05:12.805Z,10.83
2019-05-22T21:07:46.109Z,13.20
2019-05-22T21:10:14.537Z,12.53
2019-05-22T21:12:44.465Z,12.30
2019-05-22T21:15:12.838Z,10.93
2019-05-22T21:17:41.520Z,10.90
2019-05-22T21:20:12.566Z,11.43
2019-05-22T21:22:42.109Z,11.87
2019-05-22T21:25:12.025Z,11.10
2019-05-22T21:27:41.848Z,11.33
2019-05-22T21:30:11.472Z,10.77
2019-05-22T21:32:40.393Z,9.90
2019-05-22T21:35:09.212Z,10.53
2019-05-22T21:37:37.594Z,11.23
2019-05-22T21:40:06.332Z,10.90
2019-05-22T21:42:35.127Z,11.43
2019-05-22T21:45:04.558Z,11.83
2019-05-22T21:47:32.781Z,9.53
2019-05-22T21:50:00.974Z,10.13
2019-05-22T21:52:29.729Z,10.93
2019-05-22T21:54:57.919Z,9.60
2019-05-22T21:57:26.403Z,9.70
2019-05-22T21:59:54.673Z,9.67
2019-05-22T22:02:27.785Z,9.63
2019-05-22T22:04:56.439Z,10.67
2019-05-22T22:07:24.826Z,9.60
2019-05-22T22:09:53.809Z,9.63
2019-05-22T22:12:22.688Z,10.47
2019-05-22T22:14:51.480Z,10.77
2019-05-22T22:17:20.749Z,9.23
2019-05-22T22:19:49.221Z,9.80
2019-05-22T22:22:23.675Z,13.77
2019-05-22T22:24:52.344Z,11.30
2019-05-22T22:27:21.071Z,10.33
2019-05-22T22:29:49.742Z,13.13
2019-05-22T22:32:19.882Z,11.27
2019-05-22T22:34:48.549Z,11.40
2019-05-22T22:37:18.414Z,10.73
2019-05-22T22:39:50.188Z,11.20
2019-05-22T22:42:21.465Z,10.23
2019-05-22T22:44:52.219Z,9.60
2019-05-22T22:47:25.284Z,10.07
2019-05-22T22:49:55.498Z,10.77
2019-05-22T22:52:25.041Z,12.10
2019-05-22T22:54:53.320Z,11.20
2019-05-22T22:57:22.117Z,9.23
2019-05-22T22:59:50.389Z,12.07
2019-05-22T23:02:19.528Z,9.93
2019-05-22T23:04:47.749Z,10.73
2019-05-22T23:07:16.122Z,9.73
2019-05-22T23:09:44.589Z,10.60
2019-05-22T23:12:13.765Z,11.67
2019-05-22T23:14:45.361Z,12.90
2019-05-22T23:17:13.569Z,10.67
2019-05-22T23:19:42.538Z,11.17
2019-05-22T23:22:19.454Z,9.47
2019-05-22T23:24:49.401Z,12.47
2019-05-22T23:27:17.682Z,13.53
2019-05-22T23:29:46.091Z,11.87
2019-05-22T23:32:15.656Z,10.97
2019-05-22T23:34:45.300Z,11.10
2019-05-22T23:37:14.853Z,11.57
2019-05-22T23:39:44.503Z,13.90
2019-05-22T23:42:16.077Z,10.87
2019-05-22T23:44:44.279Z,11.57
2019-05-22T23:47:12.802Z,11.40
2019-05-22T23:49:41.285Z,10.70
2019-05-22T23:52:10.159Z,10.77
2019-05-22T23:54:38.705Z,14.07
2019-05-22T23:57:08.915Z,10.00
2019-05-22T23:59:39.045Z,10.87
